sensor_id;sensor_type;location;lat;lon;timestamp;P1;durP1;ratioP1;P2;durP2;ratioP2
50739;SDS011;36704;52.524;17.580;2022-09-01T00:01:42;5.70;;;1.88;;
50739;SDS011;36704;52.524;17.580;2022-09-01T00:04:31;2.95;;;1.90;;
50739;SDS011;36704;52.524;17.580;2022-09-01T00:07:17;6.95;;;2.30;;
50739;SDS011;36704;52.524;17.580;2022-09-01T00:10:04;3.45;;;1.50;;
50739;SDS011;36704;52.524;17.580;2022-09-01T00:12:51;4.15;;;1.75;;
50739;SDS011;36704;52.524;17.580;2022-09-01T00:15:38;5.95;;;1.67;;
50739;SDS011;36704;52.524;17.580;2022-09-01T00:18:24;4.05;;;1.60;;
50739;SDS011;36704;52.524;17.580;2022-09-01T00:21:11;1.83;;;1.13;;
50739;SDS011;36704;52.524;17.580;2022-09-01T00:23:58;3.22;;;1.67;;
50739;SDS011;36704;52.524;17.580;2022-09-01T00:26:45;4.70;;;1.55;;
50739;SDS011;36704;52.524;17.580;2022-09-01T00:29:31;4.97;;;1.48;;
50739;SDS011;36704;52.524;17.580;2022-09-01T00:32:17;2.17;;;1.48;;
50739;SDS011;36704;52.524;17.580;2022-09-01T00:35:04;3.28;;;1.50;;
50739;SDS011;36704;52.524;17.580;2022-09-01T00:37:50;3.85;;;1.95;;
50739;SDS011;36704;52.524;17.580;2022-09-01T00:40:37;3.80;;;1.92;;
50739;SDS011;36704;52.524;17.580;2022-09-01T00:43:34;2.35;;;1.52;;
50739;SDS011;36704;52.524;17.580;2022-09-01T00:46:31;3.80;;;1.73;;
50739;SDS011;36704;52.524;17.580;2022-09-01T00:49:39;3.38;;;1.35;;
50739;SDS011;36704;52.524;17.580;2022-09-01T00:52:30;2.42;;;1.40;;
50739;SDS011;36704;52.524;17.580;2022-09-01T00:55:23;2.00;;;1.52;;
50739;SDS011;36704;52.524;17.580;2022-09-01T00:58:12;3.83;;;1.88;;
50739;SDS011;36704;52.524;17.580;2022-09-01T01:01:05;2.25;;;1.92;;
50739;SDS011;36704;52.524;17.580;2022-09-01T01:03:52;2.67;;;1.60;;
50739;SDS011;36704;52.524;17.580;2022-09-01T01:06:38;3.65;;;1.33;;
50739;SDS011;36704;52.524;17.580;2022-09-01T01:09:26;1.95;;;1.13;;
50739;SDS011;36704;52.524;17.580;2022-09-01T01:12:18;2.83;;;1.40;;
50739;SDS011;36704;52.524;17.580;2022-09-01T01:15:08;3.90;;;1.40;;
50739;SDS011;36704;52.524;17.580;2022-09-01T01:17:56;5.50;;;1.25;;
50739;SDS011;36704;52.524;17.580;2022-09-01T01:20:42;3.90;;;1.80;;
50739;SDS011;36704;52.524;17.580;2022-09-01T01:23:50;3.70;;;1.58;;
50739;SDS011;36704;52.524;17.580;2022-09-01T01:26:40;4.53;;;1.60;;
50739;SDS011;36704;52.524;17.580;2022-09-01T01:29:30;5.93;;;1.60;;
50739;SDS011;36704;52.524;17.580;2022-09-01T01:32:17;4.15;;;1.65;;
50739;SDS011;36704;52.524;17.580;2022-09-01T01:35:04;4.13;;;2.42;;
50739;SDS011;36704;52.524;17.580;2022-09-01T01:37:51;2.55;;;1.52;;
50739;SDS011;36704;52.524;17.580;2022-09-01T01:40:38;3.25;;;1.83;;
50739;SDS011;36704;52.524;17.580;2022-09-01T01:43:26;3.55;;;1.55;;
50739;SDS011;36704;52.524;17.580;2022-09-01T01:46:20;4.47;;;2.20;;
50739;SDS011;36704;52.524;17.580;2022-09-01T01:49:15;9.15;;;3.45;;
50739;SDS011;36704;52.524;17.580;2022-09-01T01:52:06;4.93;;;1.95;;
50739;SDS011;36704;52.524;17.580;2022-09-01T01:54:55;2.28;;;1.67;;
50739;SDS011;36704;52.524;17.580;2022-09-01T01:57:41;5.10;;;1.80;;
50739;SDS011;36704;52.524;17.580;2022-09-01T02:00:46;7.15;;;1.85;;
50739;SDS011;36704;52.524;17.580;2022-09-01T02:04:10;3.70;;;1.80;;
50739;SDS011;36704;52.524;17.580;2022-09-01T02:06:56;5.82;;;2.30;;
50739;SDS011;36704;52.524;17.580;2022-09-01T02:09:44;7.47;;;2.30;;
50739;SDS011;36704;52.524;17.580;2022-09-01T02:12:37;3.25;;;1.83;;
50739;SDS011;36704;52.524;17.580;2022-09-01T02:15:39;4.18;;;1.88;;
50739;SDS011;36704;52.524;17.580;2022-09-01T02:18:33;2.70;;;1.58;;
50739;SDS011;36704;52.524;17.580;2022-09-01T02:21:22;2.50;;;2.00;;
50739;SDS011;36704;52.524;17.580;2022-09-01T02:24:09;4.45;;;2.13;;
50739;SDS011;36704;52.524;17.580;2022-09-01T02:26:56;3.30;;;1.95;;
50739;SDS011;36704;52.524;17.580;2022-09-01T02:29:47;2.75;;;2.00;;
50739;SDS011;36704;52.524;17.580;2022-09-01T02:32:35;3.95;;;1.92;;
50739;SDS011;36704;52.524;17.580;2022-09-01T02:35:21;4.45;;;2.47;;
50739;SDS011;36704;52.524;17.580;2022-09-01T02:38:08;5.43;;;2.85;;
50739;SDS011;36704;52.524;17.580;2022-09-01T02:40:55;7.30;;;2.67;;
50739;SDS011;36704;52.524;17.580;2022-09-01T02:43:42;7.97;;;3.08;;
50739;SDS011;36704;52.524;17.580;2022-09-01T02:46:31;5.57;;;3.10;;
50739;SDS011;36704;52.524;17.580;2022-09-01T02:49:18;10.00;;;3.63;;
50739;SDS011;36704;52.524;17.580;2022-09-01T02:52:06;5.90;;;3.05;;
50739;SDS011;36704;52.524;17.580;2022-09-01T02:54:53;4.80;;;2.97;;
50739;SDS011;36704;52.524;17.580;2022-09-01T02:57:41;6.90;;;3.58;;
50739;SDS011;36704;52.524;17.580;2022-09-01T03:00:28;5.25;;;2.63;;
50739;SDS011;36704;52.524;17.580;2022-09-01T03:03:43;5.28;;;3.10;;
50739;SDS011;36704;52.524;17.580;2022-09-01T03:06:32;5.72;;;3.33;;
50739;SDS011;36704;52.524;17.580;2022-09-01T03:09:19;5.43;;;3.63;;
50739;SDS011;36704;52.524;17.580;2022-09-01T03:12:05;5.68;;;3.35;;
50739;SDS011;36704;52.524;17.580;2022-09-01T03:14:53;7.20;;;3.47;;
50739;SDS011;36704;52.524;17.580;2022-09-01T03:17:39;5.40;;;3.70;;
50739;SDS011;36704;52.524;17.580;2022-09-01T03:20:26;4.85;;;3.47;;
50739;SDS011;36704;52.524;17.580;2022-09-01T03:23:14;5.60;;;3.42;;
50739;SDS011;36704;52.524;17.580;2022-09-01T03:26:05;11.85;;;5.10;;
50739;SDS011;36704;52.524;17.580;2022-09-01T03:28:51;6.35;;;3.40;;
50739;SDS011;36704;52.524;17.580;2022-09-01T03:31:37;4.47;;;3.42;;
50739;SDS011;36704;52.524;17.580;2022-09-01T03:34:24;7.93;;;3.92;;
50739;SDS011;36704;52.524;17.580;2022-09-01T03:37:12;6.43;;;3.78;;
50739;SDS011;36704;52.524;17.580;2022-09-01T03:39:58;7.43;;;3.78;;
50739;SDS011;36704;52.524;17.580;2022-09-01T03:42:45;6.13;;;4.05;;
50739;SDS011;36704;52.524;17.580;2022-09-01T03:45:31;6.53;;;4.07;;
50739;SDS011;36704;52.524;17.580;2022-09-01T03:48:23;11.57;;;4.55;;
50739;SDS011;36704;52.524;17.580;2022-09-01T03:51:10;11.00;;;4.50;;
50739;SDS011;36704;52.524;17.580;2022-09-01T03:53:58;7.93;;;4.32;;
50739;SDS011;36704;52.524;17.580;2022-09-01T03:56:45;6.75;;;4.30;;
50739;SDS011;36704;52.524;17.580;2022-09-01T03:59:35;12.52;;;4.93;;
50739;SDS011;36704;52.524;17.580;2022-09-01T04:02:28;10.13;;;4.78;;
50739;SDS011;36704;52.524;17.580;2022-09-01T04:05:19;5.60;;;3.67;;
50739;SDS011;36704;52.524;17.580;2022-09-01T04:08:08;6.05;;;3.90;;
50739;SDS011;36704;52.524;17.580;2022-09-01T04:10:58;5.07;;;3.90;;
50739;SDS011;36704;52.524;17.580;2022-09-01T04:13:51;6.13;;;3.67;;
50739;SDS011;36704;52.524;17.580;2022-09-01T04:16:37;6.10;;;3.70;;
50739;SDS011;36704;52.524;17.580;2022-09-01T04:19:43;4.57;;;3.30;;
50739;SDS011;36704;52.524;17.580;2022-09-01T04:22:29;4.03;;;3.40;;
50739;SDS011;36704;52.524;17.580;2022-09-01T04:25:17;6.18;;;3.85;;
50739;SDS011;36704;52.524;17.580;2022-09-01T04:28:11;5.72;;;3.63;;
50739;SDS011;36704;52.524;17.580;2022-09-01T04:31:09;4.63;;;3.60;;
50739;SDS011;36704;52.524;17.580;2022-09-01T04:34:00;7.57;;;3.88;;
50739;SDS011;36704;52.524;17.580;2022-09-01T04:36:47;6.40;;;4.05;;
50739;SDS011;36704;52.524;17.580;2022-09-01T04:39:39;6.38;;;3.53;;
50739;SDS011;36704;52.524;17.580;2022-09-01T04:42:39;7.07;;;4.70;;
50739;SDS011;36704;52.524;17.580;2022-09-01T04:45:27;10.18;;;4.00;;
50739;SDS011;36704;52.524;17.580;2022-09-01T04:48:14;8.25;;;4.72;;
50739;SDS011;36704;52.524;17.580;2022-09-01T04:51:00;7.75;;;3.40;;
50739;SDS011;36704;52.524;17.580;2022-09-01T04:53:57;6.97;;;3.30;;
50739;SDS011;36704;52.524;17.580;2022-09-01T04:56:44;5.03;;;3.22;;
50739;SDS011;36704;52.524;17.580;2022-09-01T04:59:34;7.53;;;3.78;;
50739;SDS011;36704;52.524;17.580;2022-09-01T05:02:20;5.60;;;3.50;;
50739;SDS011;36704;52.524;17.580;2022-09-01T05:05:11;7.70;;;3.85;;
50739;SDS011;36704;52.524;17.580;2022-09-01T05:07:58;5.20;;;3.88;;
50739;SDS011;36704;52.524;17.580;2022-09-01T05:10:46;7.85;;;4.35;;
50739;SDS011;36704;52.524;17.580;2022-09-01T05:13:49;8.80;;;4.10;;
50739;SDS011;36704;52.524;17.580;2022-09-01T05:16:36;5.93;;;3.67;;
50739;SDS011;36704;52.524;17.580;2022-09-01T05:19:26;5.50;;;3.72;;
50739;SDS011;36704;52.524;17.580;2022-09-01T05:22:17;6.97;;;3.92;;
50739;SDS011;36704;52.524;17.580;2022-09-01T05:25:14;7.53;;;3.40;;
50739;SDS011;36704;52.524;17.580;2022-09-01T05:28:02;7.22;;;3.33;;
50739;SDS011;36704;52.524;17.580;2022-09-01T05:30:50;6.60;;;3.45;;
50739;SDS011;36704;52.524;17.580;2022-09-01T05:33:39;6.03;;;3.50;;
50739;SDS011;36704;52.524;17.580;2022-09-01T05:36:31;4.40;;;2.85;;
50739;SDS011;36704;52.524;17.580;2022-09-01T05:39:20;3.42;;;2.90;;
50739;SDS011;36704;52.524;17.580;2022-09-01T05:42:06;5.03;;;2.88;;
50739;SDS011;36704;52.524;17.580;2022-09-01T05:44:55;3.65;;;2.22;;
50739;SDS011;36704;52.524;17.580;2022-09-01T05:47:42;5.43;;;3.47;;
50739;SDS011;36704;52.524;17.580;2022-09-01T05:50:28;7.85;;;3.00;;
50739;SDS011;36704;52.524;17.580;2022-09-01T05:53:17;6.60;;;2.60;;
50739;SDS011;36704;52.524;17.580;2022-09-01T05:56:07;3.90;;;2.92;;
50739;SDS011;36704;52.524;17.580;2022-09-01T05:58:55;3.67;;;2.33;;
50739;SDS011;36704;52.524;17.580;2022-09-01T06:02:04;5.82;;;2.60;;
50739;SDS011;36704;52.524;17.580;2022-09-01T06:04:56;5.45;;;2.88;;
50739;SDS011;36704;52.524;17.580;2022-09-01T06:07:49;8.70;;;3.35;;
50739;SDS011;36704;52.524;17.580;2022-09-01T06:10:36;3.83;;;2.03;;
50739;SDS011;36704;52.524;17.580;2022-09-01T06:13:24;5.50;;;2.50;;
50739;SDS011;36704;52.524;17.580;2022-09-01T06:16:13;5.95;;;1.73;;
50739;SDS011;36704;52.524;17.580;2022-09-01T06:19:02;5.82;;;2.30;;
50739;SDS011;36704;52.524;17.580;2022-09-01T06:21:50;5.72;;;2.30;;
50739;SDS011;36704;52.524;17.580;2022-09-01T06:24:38;3.45;;;2.08;;
50739;SDS011;36704;52.524;17.580;2022-09-01T06:27:33;4.55;;;1.50;;
50739;SDS011;36704;52.524;17.580;2022-09-01T06:30:26;2.85;;;1.85;;
50739;SDS011;36704;52.524;17.580;2022-09-01T06:33:20;4.90;;;1.38;;
50739;SDS011;36704;52.524;17.580;2022-09-01T06:36:39;3.85;;;1.30;;
50739;SDS011;36704;52.524;17.580;2022-09-01T06:39:27;3.55;;;1.70;;
50739;SDS011;36704;52.524;17.580;2022-09-01T06:42:16;4.25;;;1.33;;
50739;SDS011;36704;52.524;17.580;2022-09-01T06:45:14;3.08;;;1.10;;
50739;SDS011;36704;52.524;17.580;2022-09-01T06:48:05;1.80;;;1.08;;
50739;SDS011;36704;52.524;17.580;2022-09-01T06:50:58;4.68;;;1.58;;
50739;SDS011;36704;52.524;17.580;2022-09-01T06:54:08;5.03;;;1.38;;
50739;SDS011;36704;52.524;17.580;2022-09-01T06:57:20;3.47;;;1.20;;
50739;SDS011;36704;52.524;17.580;2022-09-01T07:00:29;3.17;;;1.52;;
50739;SDS011;36704;52.524;17.580;2022-09-01T07:03:20;3.58;;;1.02;;
50739;SDS011;36704;52.524;17.580;2022-09-01T07:06:22;2.38;;;1.35;;
50739;SDS011;36704;52.524;17.580;2022-09-01T07:09:34;2.97;;;0.80;;
50739;SDS011;36704;52.524;17.580;2022-09-01T07:12:56;1.27;;;0.80;;
50739;SDS011;36704;52.524;17.580;2022-09-01T07:16:02;3.80;;;1.13;;
50739;SDS011;36704;52.524;17.580;2022-09-01T07:19:15;2.75;;;0.90;;
50739;SDS011;36704;52.524;17.580;2022-09-01T07:22:11;0.70;;;0.40;;
50739;SDS011;36704;52.524;17.580;2022-09-01T07:25:21;4.43;;;1.20;;
50739;SDS011;36704;52.524;17.580;2022-09-01T07:28:15;2.97;;;0.70;;
50739;SDS011;36704;52.524;17.580;2022-09-01T07:31:03;3.67;;;1.08;;
50739;SDS011;36704;52.524;17.580;2022-09-01T07:34:13;4.10;;;0.98;;
50739;SDS011;36704;52.524;17.580;2022-09-01T07:37:32;3.78;;;1.85;;
50739;SDS011;36704;52.524;17.580;2022-09-01T07:40:46;1.20;;;0.60;;
50739;SDS011;36704;52.524;17.580;2022-09-01T07:44:03;3.53;;;1.02;;
50739;SDS011;36704;52.524;17.580;2022-09-01T07:47:58;2.58;;;0.63;;
50739;SDS011;36704;52.524;17.580;2022-09-01T07:51:04;0.85;;;0.50;;
50739;SDS011;36704;52.524;17.580;2022-09-01T07:54:10;1.08;;;0.60;;
50739;SDS011;36704;52.524;17.580;2022-09-01T07:56:58;3.72;;;0.82;;
50739;SDS011;36704;52.524;17.580;2022-09-01T07:59:46;0.50;;;0.50;;
50739;SDS011;36704;52.524;17.580;2022-09-01T08:02:56;1.17;;;0.63;;
50739;SDS011;36704;52.524;17.580;2022-09-01T08:05:43;1.05;;;0.50;;
50739;SDS011;36704;52.524;17.580;2022-09-01T08:08:31;1.00;;;0.43;;
50739;SDS011;36704;52.524;17.580;2022-09-01T08:11:22;0.52;;;0.40;;
50739;SDS011;36704;52.524;17.580;2022-09-01T08:17:18;1.73;;;0.75;;
50739;SDS011;36704;52.524;17.580;2022-09-01T08:20:30;0.90;;;0.43;;
50739;SDS011;36704;52.524;17.580;2022-09-01T08:23:27;0.50;;;0.38;;
50739;SDS011;36704;52.524;17.580;2022-09-01T08:26:15;3.33;;;0.70;;
50739;SDS011;36704;52.524;17.580;2022-09-01T08:29:02;0.73;;;0.43;;
50739;SDS011;36704;52.524;17.580;2022-09-01T08:31:55;3.35;;;0.90;;
50739;SDS011;36704;52.524;17.580;2022-09-01T08:34:43;1.65;;;0.60;;
50739;SDS011;36704;52.524;17.580;2022-09-01T08:37:30;1.15;;;0.60;;
50739;SDS011;36704;52.524;17.580;2022-09-01T08:40:18;0.73;;;0.30;;
50739;SDS011;36704;52.524;17.580;2022-09-01T08:49:17;1.25;;;0.45;;
50739;SDS011;36704;52.524;17.580;2022-09-01T08:52:33;1.15;;;0.73;;
50739;SDS011;36704;52.524;17.580;2022-09-01T08:55:30;0.40;;;0.35;;
50739;SDS011;36704;52.524;17.580;2022-09-01T08:58:22;1.23;;;0.35;;
50739;SDS011;36704;52.524;17.580;2022-09-01T09:01:37;1.35;;;0.57;;
50739;SDS011;36704;52.524;17.580;2022-09-01T09:04:36;2.13;;;0.55;;
50739;SDS011;36704;52.524;17.580;2022-09-01T09:07:42;0.80;;;0.50;;
50739;SDS011;36704;52.524;17.580;2022-09-01T09:14:04;1.17;;;0.30;;
50739;SDS011;36704;52.524;17.580;2022-09-01T09:17:13;0.77;;;0.40;;
50739;SDS011;36704;52.524;17.580;2022-09-01T09:20:00;0.40;;;0.40;;
50739;SDS011;36704;52.524;17.580;2022-09-01T09:22:49;1.95;;;0.30;;
50739;SDS011;36704;52.524;17.580;2022-09-01T09:25:35;2.30;;;0.40;;
50739;SDS011;36704;52.524;17.580;2022-09-01T09:28:21;0.40;;;0.40;;
50739;SDS011;36704;52.524;17.580;2022-09-01T09:40:14;1.85;;;0.40;;
50739;SDS011;36704;52.524;17.580;2022-09-01T09:43:04;1.13;;;0.35;;
50739;SDS011;36704;52.524;17.580;2022-09-01T09:46:02;1.95;;;0.50;;
50739;SDS011;36704;52.524;17.580;2022-09-01T09:49:15;0.80;;;0.32;;
50739;SDS011;36704;52.524;17.580;2022-09-01T09:52:21;0.43;;;0.40;;
50739;SDS011;36704;52.524;17.580;2022-09-01T09:55:22;1.55;;;0.60;;
50739;SDS011;36704;52.524;17.580;2022-09-01T09:58:12;0.85;;;0.40;;
50739;SDS011;36704;52.524;17.580;2022-09-01T10:01:02;0.43;;;0.40;;
50739;SDS011;36704;52.524;17.580;2022-09-01T10:03:52;1.13;;;0.43;;
50739;SDS011;36704;52.524;17.580;2022-09-01T10:06:41;0.50;;;0.30;;
50739;SDS011;36704;52.524;17.580;2022-09-01T10:12:21;1.08;;;0.40;;
50739;SDS011;36704;52.524;17.580;2022-09-01T10:15:08;0.50;;;0.50;;
50739;SDS011;36704;52.524;17.580;2022-09-01T10:18:00;2.65;;;0.30;;
50739;SDS011;36704;52.524;17.580;2022-09-01T10:21:17;0.63;;;0.47;;
50739;SDS011;36704;52.524;17.580;2022-09-01T10:27:30;0.30;;;0.30;;
50739;SDS011;36704;52.524;17.580;2022-09-01T10:30:20;0.45;;;0.30;;
50739;SDS011;36704;52.524;17.580;2022-09-01T10:33:06;1.52;;;0.50;;
50739;SDS011;36704;52.524;17.580;2022-09-01T10:36:04;0.73;;;0.40;;
50739;SDS011;36704;52.524;17.580;2022-09-01T10:38:52;1.85;;;0.60;;
50739;SDS011;36704;52.524;17.580;2022-09-01T10:44:58;4.15;;;0.80;;
50739;SDS011;36704;52.524;17.580;2022-09-01T10:47:46;1.95;;;0.70;;
50739;SDS011;36704;52.524;17.580;2022-09-01T10:50:32;5.38;;;1.30;;
50739;SDS011;36704;52.524;17.580;2022-09-01T10:56:38;1.90;;;0.50;;
50739;SDS011;36704;52.524;17.580;2022-09-01T10:59:29;1.25;;;0.50;;
50739;SDS011;36704;52.524;17.580;2022-09-01T11:02:20;1.40;;;0.50;;
50739;SDS011;36704;52.524;17.580;2022-09-01T11:05:12;2.85;;;1.17;;
50739;SDS011;36704;52.524;17.580;2022-09-01T11:08:20;2.97;;;0.85;;
50739;SDS011;36704;52.524;17.580;2022-09-01T11:14:20;2.50;;;0.50;;
50739;SDS011;36704;52.524;17.580;2022-09-01T11:17:12;1.13;;;0.80;;
50739;SDS011;36704;52.524;17.580;2022-09-01T11:20:23;2.25;;;0.50;;
50739;SDS011;36704;52.524;17.580;2022-09-01T11:23:19;1.80;;;0.50;;
50739;SDS011;36704;52.524;17.580;2022-09-01T11:29:54;4.72;;;0.40;;
50739;SDS011;36704;52.524;17.580;2022-09-01T11:32:41;5.72;;;0.65;;
50739;SDS011;36704;52.524;17.580;2022-09-01T11:35:33;1.67;;;0.77;;
50739;SDS011;36704;52.524;17.580;2022-09-01T11:38:20;1.08;;;0.32;;
50739;SDS011;36704;52.524;17.580;2022-09-01T11:41:07;1.50;;;0.50;;
50739;SDS011;36704;52.524;17.580;2022-09-01T11:43:53;1.40;;;0.50;;
50739;SDS011;36704;52.524;17.580;2022-09-01T11:46:42;3.13;;;0.85;;
50739;SDS011;36704;52.524;17.580;2022-09-01T11:49:50;1.52;;;0.50;;
50739;SDS011;36704;52.524;17.580;2022-09-01T11:52:39;1.27;;;0.73;;
50739;SDS011;36704;52.524;17.580;2022-09-01T11:55:29;6.60;;;1.85;;
50739;SDS011;36704;52.524;17.580;2022-09-01T11:58:33;0.73;;;0.45;;
50739;SDS011;36704;52.524;17.580;2022-09-01T12:04:21;1.05;;;0.70;;
50739;SDS011;36704;52.524;17.580;2022-09-01T12:07:10;1.80;;;0.40;;
50739;SDS011;36704;52.524;17.580;2022-09-01T12:09:59;0.35;;;0.35;;
50739;SDS011;36704;52.524;17.580;2022-09-01T12:12:45;1.10;;;0.60;;
50739;SDS011;36704;52.524;17.580;2022-09-01T12:15:32;2.50;;;0.50;;
50739;SDS011;36704;52.524;17.580;2022-09-01T12:18:45;2.75;;;0.40;;
50739;SDS011;36704;52.524;17.580;2022-09-01T12:21:35;1.75;;;0.60;;
50739;SDS011;36704;52.524;17.580;2022-09-01T12:24:27;2.15;;;0.73;;
50739;SDS011;36704;52.524;17.580;2022-09-01T12:27:16;1.90;;;0.60;;
50739;SDS011;36704;52.524;17.580;2022-09-01T12:30:03;1.38;;;0.40;;
50739;SDS011;36704;52.524;17.580;2022-09-01T12:32:49;1.88;;;0.47;;
50739;SDS011;36704;52.524;17.580;2022-09-01T12:35:35;0.95;;;0.50;;
50739;SDS011;36704;52.524;17.580;2022-09-01T12:38:23;0.30;;;0.30;;
50739;SDS011;36704;52.524;17.580;2022-09-01T12:44:30;1.73;;;1.00;;
50739;SDS011;36704;52.524;17.580;2022-09-01T12:50:35;1.02;;;0.43;;
50739;SDS011;36704;52.524;17.580;2022-09-01T12:53:28;1.75;;;0.80;;
50739;SDS011;36704;52.524;17.580;2022-09-01T12:56:27;1.50;;;0.40;;
50739;SDS011;36704;52.524;17.580;2022-09-01T12:59:25;0.70;;;0.45;;
50739;SDS011;36704;52.524;17.580;2022-09-01T13:02:26;0.57;;;0.30;;
50739;SDS011;36704;52.524;17.580;2022-09-01T13:08:37;1.75;;;0.30;;
50739;SDS011;36704;52.524;17.580;2022-09-01T13:11:22;3.78;;;0.85;;
50739;SDS011;36704;52.524;17.580;2022-09-01T13:14:09;0.68;;;0.30;;
50739;SDS011;36704;52.524;17.580;2022-09-01T13:16:54;0.30;;;0.22;;
50739;SDS011;36704;52.524;17.580;2022-09-01T13:19:40;0.50;;;0.40;;
50739;SDS011;36704;52.524;17.580;2022-09-01T13:22:26;0.57;;;0.30;;
50739;SDS011;36704;52.524;17.580;2022-09-01T13:25:13;2.13;;;0.40;;
50739;SDS011;36704;52.524;17.580;2022-09-01T13:28:02;1.83;;;0.50;;
50739;SDS011;36704;52.524;17.580;2022-09-01T13:30:49;1.23;;;0.50;;
50739;SDS011;36704;52.524;17.580;2022-09-01T13:33:58;0.57;;;0.30;;
50739;SDS011;36704;52.524;17.580;2022-09-01T13:37:04;0.80;;;0.50;;
50739;SDS011;36704;52.524;17.580;2022-09-01T13:39:50;0.75;;;0.43;;
50739;SDS011;36704;52.524;17.580;2022-09-01T13:42:36;1.20;;;0.40;;
50739;SDS011;36704;52.524;17.580;2022-09-01T13:45:22;4.00;;;0.30;;
50739;SDS011;36704;52.524;17.580;2022-09-01T13:48:10;0.65;;;0.35;;
50739;SDS011;36704;52.524;17.580;2022-09-01T13:51:00;0.30;;;0.30;;
50739;SDS011;36704;52.524;17.580;2022-09-01T13:54:03;0.30;;;0.30;;
50739;SDS011;36704;52.524;17.580;2022-09-01T13:56:51;1.58;;;0.30;;
50739;SDS011;36704;52.524;17.580;2022-09-01T13:59:37;0.50;;;0.30;;
50739;SDS011;36704;52.524;17.580;2022-09-01T14:02:23;1.45;;;0.60;;
50739;SDS011;36704;52.524;17.580;2022-09-01T14:05:10;2.63;;;0.40;;
50739;SDS011;36704;52.524;17.580;2022-09-01T14:07:57;3.38;;;0.40;;
50739;SDS011;36704;52.524;17.580;2022-09-01T14:10:44;1.77;;;0.57;;
50739;SDS011;36704;52.524;17.580;2022-09-01T14:13:33;1.00;;;0.38;;
50739;SDS011;36704;52.524;17.580;2022-09-01T14:16:20;1.00;;;0.60;;
50739;SDS011;36704;52.524;17.580;2022-09-01T14:19:05;1.90;;;0.30;;
50739;SDS011;36704;52.524;17.580;2022-09-01T14:21:52;5.45;;;0.70;;
50739;SDS011;36704;52.524;17.580;2022-09-01T14:24:37;4.72;;;0.80;;
50739;SDS011;36704;52.524;17.580;2022-09-01T14:27:25;1.10;;;0.68;;
50739;SDS011;36704;52.524;17.580;2022-09-01T14:30:13;1.20;;;0.55;;
50739;SDS011;36704;52.524;17.580;2022-09-01T14:33:15;1.65;;;0.63;;
50739;SDS011;36704;52.524;17.580;2022-09-01T14:36:02;1.63;;;0.40;;
50739;SDS011;36704;52.524;17.580;2022-09-01T14:38:49;1.40;;;0.40;;
50739;SDS011;36704;52.524;17.580;2022-09-01T14:41:35;0.38;;;0.30;;
50739;SDS011;36704;52.524;17.580;2022-09-01T14:44:20;2.13;;;0.50;;
50739;SDS011;36704;52.524;17.580;2022-09-01T14:47:06;1.92;;;0.60;;
50739;SDS011;36704;52.524;17.580;2022-09-01T14:49:56;3.10;;;0.40;;
50739;SDS011;36704;52.524;17.580;2022-09-01T14:52:42;0.35;;;0.30;;
50739;SDS011;36704;52.524;17.580;2022-09-01T14:55:28;0.25;;;0.25;;
50739;SDS011;36704;52.524;17.580;2022-09-01T14:58:14;0.60;;;0.47;;
50739;SDS011;36704;52.524;17.580;2022-09-01T15:01:01;0.70;;;0.40;;
50739;SDS011;36704;52.524;17.580;2022-09-01T15:04:07;1.38;;;0.40;;
50739;SDS011;36704;52.524;17.580;2022-09-01T15:06:53;1.13;;;0.30;;
50739;SDS011;36704;52.524;17.580;2022-09-01T15:09:39;1.17;;;0.73;;
50739;SDS011;36704;52.524;17.580;2022-09-01T15:12:28;1.92;;;0.40;;
50739;SDS011;36704;52.524;17.580;2022-09-01T15:15:18;0.63;;;0.40;;
50739;SDS011;36704;52.524;17.580;2022-09-01T15:18:05;1.75;;;0.60;;
50739;SDS011;36704;52.524;17.580;2022-09-01T15:20:51;1.63;;;0.40;;
50739;SDS011;36704;52.524;17.580;2022-09-01T15:23:38;0.88;;;0.30;;
50739;SDS011;36704;52.524;17.580;2022-09-01T15:26:24;3.20;;;0.50;;
50739;SDS011;36704;52.524;17.580;2022-09-01T15:29:11;0.93;;;0.40;;
50739;SDS011;36704;52.524;17.580;2022-09-01T15:31:57;0.35;;;0.35;;
50739;SDS011;36704;52.524;17.580;2022-09-01T15:34:43;2.60;;;0.60;;
50739;SDS011;36704;52.524;17.580;2022-09-01T15:37:33;1.67;;;0.40;;
50739;SDS011;36704;52.524;17.580;2022-09-01T15:40:21;1.10;;;0.30;;
50739;SDS011;36704;52.524;17.580;2022-09-01T15:43:08;10.52;;;1.98;;
50739;SDS011;36704;52.524;17.580;2022-09-01T15:45:55;1.02;;;0.32;;
50739;SDS011;36704;52.524;17.580;2022-09-01T15:48:43;0.35;;;0.30;;
50739;SDS011;36704;52.524;17.580;2022-09-01T15:51:33;0.30;;;0.30;;
50739;SDS011;36704;52.524;17.580;2022-09-01T15:54:23;0.57;;;0.40;;
50739;SDS011;36704;52.524;17.580;2022-09-01T15:57:16;0.77;;;0.40;;
50739;SDS011;36704;52.524;17.580;2022-09-01T16:00:02;1.42;;;0.95;;
50739;SDS011;36704;52.524;17.580;2022-09-01T16:02:56;0.70;;;0.40;;
50739;SDS011;36704;52.524;17.580;2022-09-01T16:05:46;1.87;;;0.50;;
50739;SDS011;36704;52.524;17.580;2022-09-01T16:08:32;0.70;;;0.50;;
50739;SDS011;36704;52.524;17.580;2022-09-01T16:11:20;0.82;;;0.40;;
50739;SDS011;36704;52.524;17.580;2022-09-01T16:14:10;3.10;;;1.10;;
50739;SDS011;36704;52.524;17.580;2022-09-01T16:17:07;0.80;;;0.40;;
50739;SDS011;36704;52.524;17.580;2022-09-01T16:22:57;1.35;;;0.40;;
50739;SDS011;36704;52.524;17.580;2022-09-01T16:25:51;1.10;;;0.50;;
50739;SDS011;36704;52.524;17.580;2022-09-01T16:28:38;1.25;;;0.50;;
50739;SDS011;36704;52.524;17.580;2022-09-01T16:31:32;1.40;;;0.40;;
50739;SDS011;36704;52.524;17.580;2022-09-01T16:34:22;0.63;;;0.50;;
50739;SDS011;36704;52.524;17.580;2022-09-01T16:40:18;3.58;;;0.50;;
50739;SDS011;36704;52.524;17.580;2022-09-01T16:46:15;1.48;;;0.52;;
50739;SDS011;36704;52.524;17.580;2022-09-01T16:55:33;1.02;;;0.50;;
50739;SDS011;36704;52.524;17.580;2022-09-01T17:04:39;1.38;;;0.63;;
50739;SDS011;36704;52.524;17.580;2022-09-01T17:07:58;1.95;;;0.82;;
50739;SDS011;36704;52.524;17.580;2022-09-01T17:11:10;1.75;;;1.00;;
50739;SDS011;36704;52.524;17.580;2022-09-01T17:14:36;5.65;;;1.02;;
50739;SDS011;36704;52.524;17.580;2022-09-01T17:20:53;3.88;;;0.82;;
50739;SDS011;36704;52.524;17.580;2022-09-01T17:27:17;1.55;;;0.70;;
50739;SDS011;36704;52.524;17.580;2022-09-01T17:30:05;1.77;;;0.80;;
50739;SDS011;36704;52.524;17.580;2022-09-01T17:39:01;5.45;;;1.80;;
50739;SDS011;36704;52.524;17.580;2022-09-01T17:44:53;2.95;;;1.10;;
50739;SDS011;36704;52.524;17.580;2022-09-01T18:00:16;2.47;;;1.00;;
50739;SDS011;36704;52.524;17.580;2022-09-01T18:03:30;2.60;;;0.90;;
50739;SDS011;36704;52.524;17.580;2022-09-01T18:06:24;5.50;;;0.80;;
50739;SDS011;36704;52.524;17.580;2022-09-01T18:09:17;2.88;;;1.00;;
50739;SDS011;36704;52.524;17.580;2022-09-01T18:12:07;3.08;;;1.00;;
50739;SDS011;36704;52.524;17.580;2022-09-01T18:15:10;2.42;;;1.10;;
50739;SDS011;36704;52.524;17.580;2022-09-01T18:24:46;6.07;;;2.70;;
50739;SDS011;36704;52.524;17.580;2022-09-01T18:27:39;2.33;;;1.55;;
50739;SDS011;36704;52.524;17.580;2022-09-01T18:30:28;6.18;;;2.20;;
50739;SDS011;36704;52.524;17.580;2022-09-01T18:33:41;5.78;;;2.10;;
50739;SDS011;36704;52.524;17.580;2022-09-01T18:36:32;5.30;;;1.73;;
50739;SDS011;36704;52.524;17.580;2022-09-01T18:58:56;4.90;;;1.67;;
50739;SDS011;36704;52.524;17.580;2022-09-01T19:01:58;3.38;;;1.58;;
50739;SDS011;36704;52.524;17.580;2022-09-01T19:09:01;4.28;;;2.30;;
50739;SDS011;36704;52.524;17.580;2022-09-01T19:11:50;6.57;;;2.25;;
50739;SDS011;36704;52.524;17.580;2022-09-01T19:21:14;5.28;;;2.40;;
50739;SDS011;36704;52.524;17.580;2022-09-01T19:24:15;5.82;;;2.83;;